Wellsburg, Kentucky
Current Conditions -  °F | °C
As of 5:15 PM on Monday 26 Jan 2015 (Local Time) from KFGX Reporting Station
Overcast Overcast  
Wind Chill: 20°   Ceiling: 2200
Heat Index: 27°   Visibility: 10mi
Dew Point: 20°   Wind: 6mph
Humidity: 75%   Direction: 310°NW
Pressure: 29.91"   Gusts: NA
Location:  38.7475°N, 84.1516°W
Report Text: KFGX 262215Z AUTO 31005KT 10SM OVC022 M03/M07 A2991 RMK AO2 T10281066
Loading
Personal Weather Stations






























Interactive Weather Map New forecast layout! Learn more

10-Day Weather Forecast

Advertisements
Track Severe Weather on mobile